sensor_id;sensor_type;location;lat;lon;timestamp;pressure;altitude;pressure_sealevel;temperature;humidity
12722;BME280;6425;50.316;8.114;2022-12-18T09:07:09;100317.50;;;-10.74;100.00
12722;BME280;6425;50.316;8.114;2022-12-18T09:12:10;100321.03;;;-11.16;97.70
12722;BME280;6425;50.316;8.114;2022-12-18T09:17:10;100326.41;;;-10.75;96.90
12722;BME280;6425;50.316;8.114;2022-12-18T09:22:12;100334.63;;;-10.94;95.00
12722;BME280;6425;50.316;8.114;2022-12-18T09:27:12;100340.75;;;-10.38;93.24
12722;BME280;6425;50.316;8.114;2022-12-18T09:32:13;100331.91;;;-8.69;92.36
12722;BME280;6425;50.316;8.114;2022-12-18T09:37:15;100316.47;;;-9.01;89.10
12722;BME280;6425;50.316;8.114;2022-12-18T09:42:20;100309.97;;;-8.23;87.02
12722;BME280;6425;50.316;8.114;2022-12-18T09:47:23;100313.00;;;-8.41;84.89
12722;BME280;6425;50.316;8.114;2022-12-18T09:52:32;100316.41;;;-7.91;83.74
12722;BME280;6425;50.316;8.114;2022-12-18T09:57:35;100327.78;;;-8.86;82.22
12722;BME280;6425;50.316;8.114;2022-12-18T10:02:39;100340.78;;;-9.58;84.37
12722;BME280;6425;50.316;8.114;2022-12-18T10:07:51;100311.00;;;-7.20;85.01
12722;BME280;6425;50.316;8.114;2022-12-18T10:12:59;100295.69;;;-6.51;82.51
12722;BME280;6425;50.316;8.114;2022-12-18T10:18:14;100279.38;;;-5.93;80.01
12722;BME280;6425;50.316;8.114;2022-12-18T10:23:25;100285.13;;;-7.07;78.46
12722;BME280;6425;50.316;8.114;2022-12-18T10:28:29;100286.38;;;-6.57;79.12
12722;BME280;6425;50.316;8.114;2022-12-18T10:33:31;100287.09;;;-6.11;77.89
12722;BME280;6425;50.316;8.114;2022-12-18T10:38:34;100286.81;;;-6.40;78.00
12722;BME280;6425;50.316;8.114;2022-12-18T10:43:36;100279.06;;;-6.00;78.38
12722;BME280;6425;50.316;8.114;2022-12-18T10:48:41;100276.53;;;-5.60;77.56
12722;BME280;6425;50.316;8.114;2022-12-18T10:53:55;100261.50;;;-4.59;76.93
12722;BME280;6425;50.316;8.114;2022-12-18T10:58:58;100273.91;;;-3.42;76.90
12722;BME280;6425;50.316;8.114;2022-12-18T11:04:02;100276.03;;;-3.36;76.24
12722;BME280;6425;50.316;8.114;2022-12-18T11:09:19;100259.00;;;-2.97;76.50
12722;BME280;6425;50.316;8.114;2022-12-18T11:14:22;100235.09;;;-2.36;75.70
12722;BME280;6425;50.316;8.114;2022-12-18T11:19:32;100230.03;;;-2.21;74.93
12722;BME280;6425;50.316;8.114;2022-12-18T11:24:35;100237.06;;;-3.87;74.94
12722;BME280;6425;50.316;8.114;2022-12-18T11:29:39;100235.84;;;-4.81;78.71
12722;BME280;6425;50.316;8.114;2022-12-18T11:34:41;100240.75;;;-4.36;78.92
12722;BME280;6425;50.316;8.114;2022-12-18T11:39:50;100235.81;;;-3.83;78.96
12722;BME280;6425;50.316;8.114;2022-12-18T11:44:55;100227.66;;;-4.89;82.53
12722;BME280;6425;50.316;8.114;2022-12-18T11:50:01;100250.66;;;-5.08;84.14
12722;BME280;6425;50.316;8.114;2022-12-18T11:55:11;100248.09;;;-6.67;87.33
12722;BME280;6425;50.316;8.114;2022-12-18T12:00:15;100247.94;;;-6.43;88.84
12722;BME280;6425;50.316;8.114;2022-12-18T12:05:27;100245.94;;;-5.76;89.50
12722;BME280;6425;50.316;8.114;2022-12-18T12:10:38;100235.91;;;-3.08;87.58
12722;BME280;6425;50.316;8.114;2022-12-18T12:15:47;100237.59;;;-5.62;85.39
12722;BME280;6425;50.316;8.114;2022-12-18T12:20:59;100225.53;;;-4.16;85.33
12722;BME280;6425;50.316;8.114;2022-12-18T12:26:06;100229.47;;;-3.91;82.79
12722;BME280;6425;50.316;8.114;2022-12-18T12:31:14;100197.94;;;-4.26;81.93
12722;BME280;6425;50.316;8.114;2022-12-18T12:36:24;100197.06;;;-4.66;83.49
12722;BME280;6425;50.316;8.114;2022-12-18T12:41:31;100210.19;;;-4.43;83.12
12722;BME280;6425;50.316;8.114;2022-12-18T12:46:37;100233.13;;;-4.31;83.21
12722;BME280;6425;50.316;8.114;2022-12-18T12:51:40;100222.47;;;-4.81;82.85
12722;BME280;6425;50.316;8.114;2022-12-18T12:56:47;100220.47;;;-4.19;82.90
12722;BME280;6425;50.316;8.114;2022-12-18T13:01:53;100202.47;;;-4.37;81.82
12722;BME280;6425;50.316;8.114;2022-12-18T13:07:01;100199.06;;;-4.39;81.27
12722;BME280;6425;50.316;8.114;2022-12-18T13:12:11;100195.97;;;-4.15;81.39
12722;BME280;6425;50.316;8.114;2022-12-18T13:17:16;100188.06;;;-4.55;81.23
12722;BME280;6425;50.316;8.114;2022-12-18T13:22:25;100174.53;;;-4.63;82.38
12722;BME280;6425;50.316;8.114;2022-12-18T13:27:59;100184.88;;;-5.09;82.98
12722;BME280;6425;50.316;8.114;2022-12-18T13:39:10;100178.75;;;-5.61;84.28
12722;BME280;6425;50.316;8.114;2022-12-18T13:44:17;100175.31;;;-5.72;85.71
12722;BME280;6425;50.316;8.114;2022-12-18T13:49:24;100175.13;;;-5.81;85.91
12722;BME280;6425;50.316;8.114;2022-12-18T13:54:31;100158.06;;;-5.68;85.24
12722;BME280;6425;50.316;8.114;2022-12-18T13:59:36;100164.75;;;-6.05;86.39
12722;BME280;6425;50.316;8.114;2022-12-18T14:04:36;100172.13;;;-6.29;86.09
12722;BME280;6425;50.316;8.114;2022-12-18T14:09:40;100184.56;;;-5.76;86.41
12722;BME280;6425;50.316;8.114;2022-12-18T14:14:46;100194.28;;;-5.96;85.48
12722;BME280;6425;50.316;8.114;2022-12-18T14:19:49;100196.47;;;-6.01;85.49
12722;BME280;6425;50.316;8.114;2022-12-18T14:25:10;100194.78;;;-6.02;85.32
12722;BME280;6425;50.316;8.114;2022-12-18T14:30:31;100188.53;;;-6.13;85.12
12722;BME280;6425;50.316;8.114;2022-12-18T14:35:33;100200.47;;;-5.96;85.61
12722;BME280;6425;50.316;8.114;2022-12-18T14:46:44;100184.00;;;-6.22;86.72
12722;BME280;6425;50.316;8.114;2022-12-18T14:51:47;100187.94;;;-6.16;86.02
12722;BME280;6425;50.316;8.114;2022-12-18T14:56:51;100189.41;;;-5.91;85.89
12722;BME280;6425;50.316;8.114;2022-12-18T15:04:45;100167.53;;;-6.56;85.06
12722;BME280;6425;50.316;8.114;2022-12-18T15:13:22;100163.03;;;-6.35;85.71
12722;BME280;6425;50.316;8.114;2022-12-18T15:18:29;100172.19;;;-6.27;85.26
12722;BME280;6425;50.316;8.114;2022-12-18T15:23:35;100171.94;;;-5.94;83.48
12722;BME280;6425;50.316;8.114;2022-12-18T15:28:44;100173.59;;;-5.62;82.54
12722;BME280;6425;50.316;8.114;2022-12-18T15:34:01;100162.81;;;-6.22;83.78
12722;BME280;6425;50.316;8.114;2022-12-18T15:39:10;100157.09;;;-6.38;83.73
12722;BME280;6425;50.316;8.114;2022-12-18T15:44:22;100156.28;;;-6.08;84.38
12722;BME280;6425;50.316;8.114;2022-12-18T15:49:24;100148.81;;;-5.24;82.08
12722;BME280;6425;50.316;8.114;2022-12-18T15:54:26;100157.00;;;-4.87;80.39
12722;BME280;6425;50.316;8.114;2022-12-18T15:59:28;100149.22;;;-5.09;78.65
12722;BME280;6425;50.316;8.114;2022-12-18T16:04:31;100160.91;;;-5.10;78.14
12722;BME280;6425;50.316;8.114;2022-12-18T16:09:32;100166.97;;;-4.69;78.00
12722;BME280;6425;50.316;8.114;2022-12-18T16:14:35;100150.34;;;-4.73;76.70
12722;BME280;6425;50.316;8.114;2022-12-18T16:19:37;100145.84;;;-4.92;78.18
12722;BME280;6425;50.316;8.114;2022-12-18T16:24:38;100146.41;;;-4.69;78.65
12722;BME280;6425;50.316;8.114;2022-12-18T16:29:42;100134.31;;;-5.12;78.92
12722;BME280;6425;50.316;8.114;2022-12-18T16:34:44;100142.75;;;-4.78;77.18
12722;BME280;6425;50.316;8.114;2022-12-18T16:39:46;100133.69;;;-4.57;77.71
12722;BME280;6425;50.316;8.114;2022-12-18T16:44:49;100136.53;;;-5.46;81.07
12722;BME280;6425;50.316;8.114;2022-12-18T16:49:51;100131.19;;;-5.56;81.26
12722;BME280;6425;50.316;8.114;2022-12-18T16:54:52;100139.97;;;-4.95;81.04
12722;BME280;6425;50.316;8.114;2022-12-18T16:59:55;100126.34;;;-4.36;79.91
12722;BME280;6425;50.316;8.114;2022-12-18T17:05:06;100115.47;;;-3.97;78.18
12722;BME280;6425;50.316;8.114;2022-12-18T17:10:08;100113.00;;;-3.53;75.68
12722;BME280;6425;50.316;8.114;2022-12-18T17:15:11;100104.41;;;-4.49;77.38
12722;BME280;6425;50.316;8.114;2022-12-18T17:20:13;100090.75;;;-4.18;78.16
12722;BME280;6425;50.316;8.114;2022-12-18T17:25:17;100070.56;;;-4.31;78.53
12722;BME280;6425;50.316;8.114;2022-12-18T17:30:20;100086.94;;;-4.53;79.60
12722;BME280;6425;50.316;8.114;2022-12-18T17:35:22;100089.56;;;-4.34;79.71
12722;BME280;6425;50.316;8.114;2022-12-18T17:40:24;100087.00;;;-4.72;80.25
12722;BME280;6425;50.316;8.114;2022-12-18T17:45:27;100090.00;;;-4.48;81.16
12722;BME280;6425;50.316;8.114;2022-12-18T17:50:31;100092.81;;;-4.40;80.53
12722;BME280;6425;50.316;8.114;2022-12-18T17:55:36;100080.31;;;-4.39;79.88
12722;BME280;6425;50.316;8.114;2022-12-18T18:00:40;100079.53;;;-4.22;80.77
12722;BME280;6425;50.316;8.114;2022-12-18T18:05:44;100088.81;;;-4.16;79.79
12722;BME280;6425;50.316;8.114;2022-12-18T18:10:51;100090.69;;;-3.99;79.07
12722;BME280;6425;50.316;8.114;2022-12-18T18:15:58;100097.63;;;-3.51;79.12
12722;BME280;6425;50.316;8.114;2022-12-18T18:21:11;100084.75;;;-3.65;78.01
12722;BME280;6425;50.316;8.114;2022-12-18T18:26:26;100056.97;;;-4.19;78.73
12722;BME280;6425;50.316;8.114;2022-12-18T18:31:31;100057.56;;;-4.25;79.22
12722;BME280;6425;50.316;8.114;2022-12-18T18:36:42;100051.06;;;-4.23;79.50
12722;BME280;6425;50.316;8.114;2022-12-18T18:41:46;100049.75;;;-4.19;79.29
12722;BME280;6425;50.316;8.114;2022-12-18T18:46:59;100047.25;;;-3.75;78.07
12722;BME280;6425;50.316;8.114;2022-12-18T18:52:07;100032.84;;;-3.92;78.29
12722;BME280;6425;50.316;8.114;2022-12-18T18:57:15;100024.25;;;-3.50;78.42
12722;BME280;6425;50.316;8.114;2022-12-18T19:02:30;100013.31;;;-3.74;77.09
12722;BME280;6425;50.316;8.114;2022-12-18T19:07:32;100026.53;;;-3.37;77.51
12722;BME280;6425;50.316;8.114;2022-12-18T19:12:35;100019.41;;;-3.82;77.09
12722;BME280;6425;50.316;8.114;2022-12-18T19:17:43;100002.69;;;-3.94;78.12
12722;BME280;6425;50.316;8.114;2022-12-18T19:22:47;100027.91;;;-3.69;78.06
12722;BME280;6425;50.316;8.114;2022-12-18T19:27:56;100006.84;;;-2.84;76.33
12722;BME280;6425;50.316;8.114;2022-12-18T19:39:27;99974.78;;;-2.26;73.15
12722;BME280;6425;50.316;8.114;2022-12-18T19:45:11;99983.66;;;-1.74;71.74
12722;BME280;6425;50.316;8.114;2022-12-18T19:50:55;99972.94;;;-1.42;70.40
12722;BME280;6425;50.316;8.114;2022-12-18T19:56:58;99979.78;;;-1.80;70.61
12722;BME280;6425;50.316;8.114;2022-12-18T20:02:36;99983.88;;;-1.19;70.19
12722;BME280;6425;50.316;8.114;2022-12-18T20:08:23;99996.75;;;-1.63;69.71
12722;BME280;6425;50.316;8.114;2022-12-18T20:13:40;100010.44;;;-2.07;72.28
12722;BME280;6425;50.316;8.114;2022-12-18T20:19:01;100003.44;;;-1.92;71.84
12722;BME280;6425;50.316;8.114;2022-12-18T20:30:00;100012.59;;;-1.03;67.97
12722;BME280;6425;50.316;8.114;2022-12-18T20:35:41;99994.47;;;-0.93;67.87
12722;BME280;6425;50.316;8.114;2022-12-18T20:40:44;99988.69;;;-1.80;69.39
12722;BME280;6425;50.316;8.114;2022-12-18T20:45:46;99991.06;;;-2.61;71.98
12722;BME280;6425;50.316;8.114;2022-12-18T20:50:56;99976.16;;;-3.34;73.95
12722;BME280;6425;50.316;8.114;2022-12-18T20:56:00;99989.59;;;-2.82;75.44
12722;BME280;6425;50.316;8.114;2022-12-18T21:01:04;99993.31;;;-2.48;74.87
12722;BME280;6425;50.316;8.114;2022-12-18T21:06:07;99971.47;;;-2.88;74.17
12722;BME280;6425;50.316;8.114;2022-12-18T21:11:16;99984.84;;;-2.28;73.41
12722;BME280;6425;50.316;8.114;2022-12-18T21:16:25;99998.19;;;-2.44;73.91
12722;BME280;6425;50.316;8.114;2022-12-18T21:21:27;99983.28;;;-1.96;73.03
12722;BME280;6425;50.316;8.114;2022-12-18T21:26:30;100000.81;;;-1.76;72.43
12722;BME280;6425;50.316;8.114;2022-12-18T21:31:33;99993.38;;;-2.66;72.52
12722;BME280;6425;50.316;8.114;2022-12-18T21:36:35;99977.53;;;-2.78;74.56
12722;BME280;6425;50.316;8.114;2022-12-18T21:41:38;99987.06;;;-3.09;75.06
12722;BME280;6425;50.316;8.114;2022-12-18T21:46:45;99989.78;;;-2.07;74.85
12722;BME280;6425;50.316;8.114;2022-12-18T21:51:54;99985.38;;;-2.84;74.92
12722;BME280;6425;50.316;8.114;2022-12-18T21:56:59;99986.91;;;-2.13;73.90
12722;BME280;6425;50.316;8.114;2022-12-18T22:02:02;99982.09;;;-2.44;74.92
12722;BME280;6425;50.316;8.114;2022-12-18T22:07:04;99998.03;;;-2.42;75.16
12722;BME280;6425;50.316;8.114;2022-12-18T22:12:09;99993.50;;;-2.42;74.32
12722;BME280;6425;50.316;8.114;2022-12-18T22:17:12;99984.84;;;-2.19;73.88
12722;BME280;6425;50.316;8.114;2022-12-18T22:22:14;99990.13;;;-2.10;73.69
12722;BME280;6425;50.316;8.114;2022-12-18T22:27:17;99993.31;;;-1.98;73.44
12722;BME280;6425;50.316;8.114;2022-12-18T22:32:22;99973.06;;;-1.68;72.48
12722;BME280;6425;50.316;8.114;2022-12-18T22:37:31;99966.69;;;-1.75;72.91
12722;BME280;6425;50.316;8.114;2022-12-18T22:42:34;99969.03;;;-1.64;72.64
12722;BME280;6425;50.316;8.114;2022-12-18T22:47:36;99958.13;;;-2.29;74.19
12722;BME280;6425;50.316;8.114;2022-12-18T22:52:38;99967.38;;;-2.23;74.45
12722;BME280;6425;50.316;8.114;2022-12-18T22:57:41;99961.66;;;-2.29;74.26
12722;BME280;6425;50.316;8.114;2022-12-18T23:02:49;99959.34;;;-2.92;76.12
12722;BME280;6425;50.316;8.114;2022-12-18T23:08:00;99970.22;;;-3.19;77.84
12722;BME280;6425;50.316;8.114;2022-12-18T23:13:03;99950.94;;;-3.41;78.37
12722;BME280;6425;50.316;8.114;2022-12-18T23:18:05;99938.97;;;-3.29;78.88
12722;BME280;6425;50.316;8.114;2022-12-18T23:23:09;99931.31;;;-2.63;77.77
12722;BME280;6425;50.316;8.114;2022-12-18T23:28:12;99931.22;;;-2.80;77.05
12722;BME280;6425;50.316;8.114;2022-12-18T23:33:13;99912.22;;;-3.20;78.07
12722;BME280;6425;50.316;8.114;2022-12-18T23:38:15;99916.75;;;-2.10;76.46
12722;BME280;6425;50.316;8.114;2022-12-18T23:43:18;99923.81;;;-2.01;75.13
12722;BME280;6425;50.316;8.114;2022-12-18T23:48:19;99905.91;;;-2.43;74.81
12722;BME280;6425;50.316;8.114;2022-12-18T23:53:21;99905.81;;;-2.17;75.17
12722;BME280;6425;50.316;8.114;2022-12-18T23:58:24;99906.38;;;-1.72;73.86
